sensor_id;sensor_type;location;lat;lon;timestamp;P1;durP1;ratioP1;P2;durP2;ratioP2
10939;SDS011;5522;42.696;23.494;2023-05-07T00:00:42;3.63;;;3.50;;
10939;SDS011;5522;42.696;23.494;2023-05-07T00:03:09;5.32;;;3.30;;
10939;SDS011;5522;42.696;23.494;2023-05-07T00:05:36;3.45;;;3.25;;
10939;SDS011;5522;42.696;23.494;2023-05-07T00:08:05;4.25;;;3.25;;
10939;SDS011;5522;42.696;23.494;2023-05-07T00:10:32;3.25;;;3.05;;
10939;SDS011;5522;42.696;23.494;2023-05-07T00:12:59;4.18;;;3.65;;
10939;SDS011;5522;42.696;23.494;2023-05-07T00:15:26;6.00;;;2.88;;
10939;SDS011;5522;42.696;23.494;2023-05-07T00:17:53;3.28;;;2.97;;
10939;SDS011;5522;42.696;23.494;2023-05-07T00:22:55;2.95;;;2.75;;
10939;SDS011;5522;42.696;23.494;2023-05-07T00:25:23;4.72;;;2.83;;
10939;SDS011;5522;42.696;23.494;2023-05-07T00:27:50;3.17;;;2.97;;
10939;SDS011;5522;42.696;23.494;2023-05-07T00:30:17;4.82;;;4.13;;
10939;SDS011;5522;42.696;23.494;2023-05-07T00:32:44;2.90;;;2.70;;
10939;SDS011;5522;42.696;23.494;2023-05-07T00:35:11;2.88;;;2.78;;
10939;SDS011;5522;42.696;23.494;2023-05-07T00:37:37;5.80;;;3.25;;
10939;SDS011;5522;42.696;23.494;2023-05-07T00:40:05;3.67;;;2.97;;
10939;SDS011;5522;42.696;23.494;2023-05-07T00:42:34;3.72;;;3.47;;
10939;SDS011;5522;42.696;23.494;2023-05-07T00:45:02;3.00;;;2.80;;
10939;SDS011;5522;42.696;23.494;2023-05-07T00:47:29;5.28;;;3.25;;
10939;SDS011;5522;42.696;23.494;2023-05-07T00:49:56;4.10;;;3.35;;
10939;SDS011;5522;42.696;23.494;2023-05-07T00:52:23;4.60;;;3.67;;
10939;SDS011;5522;42.696;23.494;2023-05-07T00:54:52;3.53;;;3.22;;
10939;SDS011;5522;42.696;23.494;2023-05-07T00:57:20;4.25;;;3.95;;
10939;SDS011;5522;42.696;23.494;2023-05-07T00:59:49;4.07;;;3.88;;
10939;SDS011;5522;42.696;23.494;2023-05-07T01:02:17;5.82;;;4.20;;
10939;SDS011;5522;42.696;23.494;2023-05-07T01:04:44;5.28;;;4.78;;
10939;SDS011;5522;42.696;23.494;2023-05-07T01:07:11;4.32;;;4.00;;
10939;SDS011;5522;42.696;23.494;2023-05-07T01:09:39;5.10;;;4.72;;
10939;SDS011;5522;42.696;23.494;2023-05-07T01:12:06;6.38;;;4.90;;
10939;SDS011;5522;42.696;23.494;2023-05-07T01:14:34;5.32;;;4.63;;
10939;SDS011;5522;42.696;23.494;2023-05-07T01:17:02;5.45;;;5.00;;
10939;SDS011;5522;42.696;23.494;2023-05-07T01:19:29;4.65;;;4.35;;
10939;SDS011;5522;42.696;23.494;2023-05-07T01:22:00;4.82;;;4.53;;
10939;SDS011;5522;42.696;23.494;2023-05-07T01:24:31;5.93;;;5.53;;
10939;SDS011;5522;42.696;23.494;2023-05-07T01:26:58;6.18;;;5.78;;
10939;SDS011;5522;42.696;23.494;2023-05-07T01:29:26;5.15;;;4.63;;
10939;SDS011;5522;42.696;23.494;2023-05-07T01:31:53;7.28;;;5.10;;
10939;SDS011;5522;42.696;23.494;2023-05-07T01:34:23;4.13;;;3.72;;
10939;SDS011;5522;42.696;23.494;2023-05-07T01:36:52;5.78;;;4.68;;
10939;SDS011;5522;42.696;23.494;2023-05-07T01:39:20;7.45;;;4.35;;
10939;SDS011;5522;42.696;23.494;2023-05-07T01:41:49;4.90;;;4.35;;
10939;SDS011;5522;42.696;23.494;2023-05-07T01:44:16;4.50;;;4.20;;
10939;SDS011;5522;42.696;23.494;2023-05-07T01:46:45;6.32;;;5.45;;
10939;SDS011;5522;42.696;23.494;2023-05-07T01:49:14;6.40;;;4.15;;
10939;SDS011;5522;42.696;23.494;2023-05-07T01:51:41;4.68;;;3.97;;
10939;SDS011;5522;42.696;23.494;2023-05-07T01:54:09;3.75;;;3.35;;
10939;SDS011;5522;42.696;23.494;2023-05-07T01:56:36;5.07;;;4.13;;
10939;SDS011;5522;42.696;23.494;2023-05-07T01:59:04;10.00;;;4.82;;
10939;SDS011;5522;42.696;23.494;2023-05-07T02:01:31;6.68;;;5.07;;
10939;SDS011;5522;42.696;23.494;2023-05-07T02:03:58;5.85;;;5.28;;
10939;SDS011;5522;42.696;23.494;2023-05-07T02:06:24;6.82;;;5.03;;
10939;SDS011;5522;42.696;23.494;2023-05-07T02:08:51;5.70;;;5.22;;
10939;SDS011;5522;42.696;23.494;2023-05-07T02:11:18;6.82;;;6.22;;
10939;SDS011;5522;42.696;23.494;2023-05-07T02:13:45;8.00;;;6.13;;
10939;SDS011;5522;42.696;23.494;2023-05-07T02:16:13;9.65;;;6.80;;
10939;SDS011;5522;42.696;23.494;2023-05-07T02:18:40;6.45;;;5.95;;
10939;SDS011;5522;42.696;23.494;2023-05-07T02:21:07;7.28;;;6.18;;
10939;SDS011;5522;42.696;23.494;2023-05-07T02:23:34;7.88;;;7.07;;
10939;SDS011;5522;42.696;23.494;2023-05-07T02:26:00;9.75;;;7.28;;
10939;SDS011;5522;42.696;23.494;2023-05-07T02:28:27;7.57;;;6.68;;
10939;SDS011;5522;42.696;23.494;2023-05-07T02:30:54;7.85;;;6.93;;
10939;SDS011;5522;42.696;23.494;2023-05-07T02:33:24;8.68;;;7.18;;
10939;SDS011;5522;42.696;23.494;2023-05-07T02:35:51;8.20;;;6.65;;
10939;SDS011;5522;42.696;23.494;2023-05-07T02:38:18;7.13;;;6.63;;
10939;SDS011;5522;42.696;23.494;2023-05-07T02:40:45;7.93;;;7.28;;
10939;SDS011;5522;42.696;23.494;2023-05-07T02:43:12;7.90;;;7.28;;
10939;SDS011;5522;42.696;23.494;2023-05-07T02:45:38;9.80;;;7.32;;
10939;SDS011;5522;42.696;23.494;2023-05-07T02:48:05;7.57;;;6.93;;
10939;SDS011;5522;42.696;23.494;2023-05-07T02:50:33;7.78;;;7.07;;
10939;SDS011;5522;42.696;23.494;2023-05-07T02:53:00;7.82;;;7.22;;
10939;SDS011;5522;42.696;23.494;2023-05-07T02:55:27;9.18;;;7.50;;
10939;SDS011;5522;42.696;23.494;2023-05-07T02:57:54;8.43;;;7.63;;
10939;SDS011;5522;42.696;23.494;2023-05-07T03:00:21;7.72;;;7.03;;
10939;SDS011;5522;42.696;23.494;2023-05-07T03:02:48;10.10;;;7.25;;
10939;SDS011;5522;42.696;23.494;2023-05-07T03:05:15;7.80;;;7.10;;
10939;SDS011;5522;42.696;23.494;2023-05-07T03:07:43;8.38;;;7.55;;
10939;SDS011;5522;42.696;23.494;2023-05-07T03:10:11;8.07;;;7.28;;
10939;SDS011;5522;42.696;23.494;2023-05-07T03:12:38;7.78;;;7.00;;
10939;SDS011;5522;42.696;23.494;2023-05-07T03:15:05;8.82;;;8.02;;
10939;SDS011;5522;42.696;23.494;2023-05-07T03:17:33;7.15;;;6.55;;
10939;SDS011;5522;42.696;23.494;2023-05-07T03:20:00;7.60;;;6.97;;
10939;SDS011;5522;42.696;23.494;2023-05-07T03:22:26;7.30;;;6.57;;
10939;SDS011;5522;42.696;23.494;2023-05-07T03:24:55;6.35;;;5.85;;
10939;SDS011;5522;42.696;23.494;2023-05-07T03:27:21;7.60;;;6.95;;
10939;SDS011;5522;42.696;23.494;2023-05-07T03:29:48;7.60;;;6.85;;
10939;SDS011;5522;42.696;23.494;2023-05-07T03:32:15;8.38;;;6.68;;
10939;SDS011;5522;42.696;23.494;2023-05-07T03:34:42;8.65;;;7.68;;
10939;SDS011;5522;42.696;23.494;2023-05-07T03:37:09;8.07;;;7.30;;
10939;SDS011;5522;42.696;23.494;2023-05-07T03:39:35;9.75;;;8.40;;
10939;SDS011;5522;42.696;23.494;2023-05-07T03:42:04;13.45;;;11.40;;
10939;SDS011;5522;42.696;23.494;2023-05-07T03:44:30;25.05;;;22.30;;
10939;SDS011;5522;42.696;23.494;2023-05-07T03:46:57;22.77;;;19.90;;
10939;SDS011;5522;42.696;23.494;2023-05-07T03:49:24;23.58;;;18.75;;
10939;SDS011;5522;42.696;23.494;2023-05-07T03:51:51;20.23;;;15.68;;
10939;SDS011;5522;42.696;23.494;2023-05-07T03:54:18;20.05;;;13.70;;
10939;SDS011;5522;42.696;23.494;2023-05-07T03:56:44;15.45;;;12.93;;
10939;SDS011;5522;42.696;23.494;2023-05-07T03:59:13;6.13;;;5.53;;
10939;SDS011;5522;42.696;23.494;2023-05-07T04:01:40;5.65;;;5.20;;
10939;SDS011;5522;42.696;23.494;2023-05-07T04:04:07;5.80;;;5.30;;
10939;SDS011;5522;42.696;23.494;2023-05-07T04:06:33;8.15;;;7.30;;
10939;SDS011;5522;42.696;23.494;2023-05-07T04:09:00;5.45;;;5.03;;
10939;SDS011;5522;42.696;23.494;2023-05-07T04:11:27;5.70;;;5.20;;
10939;SDS011;5522;42.696;23.494;2023-05-07T04:13:54;8.38;;;6.82;;
10939;SDS011;5522;42.696;23.494;2023-05-07T04:16:22;4.85;;;4.55;;
10939;SDS011;5522;42.696;23.494;2023-05-07T04:18:49;3.50;;;3.33;;
10939;SDS011;5522;42.696;23.494;2023-05-07T04:21:16;3.67;;;3.47;;
10939;SDS011;5522;42.696;23.494;2023-05-07T04:23:43;8.90;;;5.75;;
10939;SDS011;5522;42.696;23.494;2023-05-07T04:26:10;4.50;;;4.15;;
10939;SDS011;5522;42.696;23.494;2023-05-07T04:28:36;4.00;;;3.63;;
10939;SDS011;5522;42.696;23.494;2023-05-07T04:31:04;3.85;;;3.65;;
10939;SDS011;5522;42.696;23.494;2023-05-07T04:33:32;4.00;;;3.13;;
10939;SDS011;5522;42.696;23.494;2023-05-07T04:36:00;2.20;;;2.00;;
10939;SDS011;5522;42.696;23.494;2023-05-07T04:38:28;2.70;;;2.03;;
10939;SDS011;5522;42.696;23.494;2023-05-07T04:40:56;3.97;;;3.15;;
10939;SDS011;5522;42.696;23.494;2023-05-07T04:43:23;7.70;;;3.25;;
10939;SDS011;5522;42.696;23.494;2023-05-07T04:45:50;2.35;;;2.15;;
10939;SDS011;5522;42.696;23.494;2023-05-07T04:48:17;2.38;;;1.58;;
10939;SDS011;5522;42.696;23.494;2023-05-07T04:50:48;5.35;;;1.92;;
10939;SDS011;5522;42.696;23.494;2023-05-07T04:53:15;2.78;;;1.63;;
10939;SDS011;5522;42.696;23.494;2023-05-07T04:55:42;1.52;;;1.50;;
10939;SDS011;5522;42.696;23.494;2023-05-07T04:58:10;2.05;;;1.75;;
10939;SDS011;5522;42.696;23.494;2023-05-07T05:00:37;2.60;;;1.38;;
10939;SDS011;5522;42.696;23.494;2023-05-07T05:03:04;2.47;;;1.60;;
10939;SDS011;5522;42.696;23.494;2023-05-07T05:05:31;1.48;;;1.40;;
10939;SDS011;5522;42.696;23.494;2023-05-07T05:07:59;1.42;;;1.20;;
10939;SDS011;5522;42.696;23.494;2023-05-07T05:10:26;2.83;;;1.30;;
10939;SDS011;5522;42.696;23.494;2023-05-07T05:12:53;1.38;;;1.27;;
10939;SDS011;5522;42.696;23.494;2023-05-07T05:15:20;3.45;;;1.33;;
10939;SDS011;5522;42.696;23.494;2023-05-07T05:17:46;1.60;;;1.45;;
10939;SDS011;5522;42.696;23.494;2023-05-07T05:20:13;2.55;;;1.88;;
10939;SDS011;5522;42.696;23.494;2023-05-07T05:22:41;2.30;;;1.60;;
10939;SDS011;5522;42.696;23.494;2023-05-07T05:25:09;2.08;;;1.95;;
10939;SDS011;5522;42.696;23.494;2023-05-07T05:27:36;3.60;;;2.55;;
10939;SDS011;5522;42.696;23.494;2023-05-07T05:30:03;2.38;;;1.92;;
10939;SDS011;5522;42.696;23.494;2023-05-07T05:32:31;2.72;;;2.63;;
10939;SDS011;5522;42.696;23.494;2023-05-07T05:34:58;3.53;;;1.90;;
10939;SDS011;5522;42.696;23.494;2023-05-07T05:37:25;3.88;;;2.78;;
10939;SDS011;5522;42.696;23.494;2023-05-07T05:39:51;6.43;;;2.25;;
10939;SDS011;5522;42.696;23.494;2023-05-07T05:42:21;5.82;;;2.33;;
10939;SDS011;5522;42.696;23.494;2023-05-07T05:44:48;2.08;;;1.75;;
10939;SDS011;5522;42.696;23.494;2023-05-07T05:47:15;2.10;;;2.03;;
10939;SDS011;5522;42.696;23.494;2023-05-07T05:49:41;3.15;;;2.38;;
10939;SDS011;5522;42.696;23.494;2023-05-07T05:52:12;2.45;;;2.30;;
10939;SDS011;5522;42.696;23.494;2023-05-07T05:54:39;2.80;;;2.60;;
10939;SDS011;5522;42.696;23.494;2023-05-07T05:57:06;4.30;;;2.63;;
10939;SDS011;5522;42.696;23.494;2023-05-07T05:59:34;3.90;;;2.03;;
10939;SDS011;5522;42.696;23.494;2023-05-07T06:02:01;3.45;;;2.42;;
10939;SDS011;5522;42.696;23.494;2023-05-07T06:04:28;3.35;;;2.05;;
10939;SDS011;5522;42.696;23.494;2023-05-07T06:06:55;2.50;;;2.25;;
10939;SDS011;5522;42.696;23.494;2023-05-07T06:09:22;2.55;;;2.33;;
10939;SDS011;5522;42.696;23.494;2023-05-07T06:11:49;3.65;;;2.70;;
10939;SDS011;5522;42.696;23.494;2023-05-07T06:14:15;2.28;;;2.13;;
10939;SDS011;5522;42.696;23.494;2023-05-07T06:16:44;2.35;;;2.25;;
10939;SDS011;5522;42.696;23.494;2023-05-07T06:19:11;2.83;;;2.72;;
10939;SDS011;5522;42.696;23.494;2023-05-07T06:21:38;3.08;;;2.88;;
10939;SDS011;5522;42.696;23.494;2023-05-07T06:24:06;6.75;;;2.75;;
10939;SDS011;5522;42.696;23.494;2023-05-07T06:26:33;5.97;;;2.78;;
10939;SDS011;5522;42.696;23.494;2023-05-07T06:29:00;2.60;;;2.40;;
10939;SDS011;5522;42.696;23.494;2023-05-07T06:31:29;5.82;;;2.63;;
10939;SDS011;5522;42.696;23.494;2023-05-07T06:33:58;5.35;;;4.85;;
10939;SDS011;5522;42.696;23.494;2023-05-07T06:36:27;5.78;;;2.92;;
10939;SDS011;5522;42.696;23.494;2023-05-07T06:38:54;2.67;;;2.10;;
10939;SDS011;5522;42.696;23.494;2023-05-07T06:41:21;5.75;;;3.08;;
10939;SDS011;5522;42.696;23.494;2023-05-07T06:43:47;2.50;;;2.25;;
10939;SDS011;5522;42.696;23.494;2023-05-07T06:46:14;4.68;;;2.33;;
10939;SDS011;5522;42.696;23.494;2023-05-07T06:48:42;4.80;;;2.03;;
10939;SDS011;5522;42.696;23.494;2023-05-07T06:51:10;3.85;;;2.47;;
10939;SDS011;5522;42.696;23.494;2023-05-07T06:53:37;2.38;;;2.10;;
10939;SDS011;5522;42.696;23.494;2023-05-07T06:56:04;2.50;;;1.33;;
10939;SDS011;5522;42.696;23.494;2023-05-07T06:58:31;1.92;;;1.35;;
10939;SDS011;5522;42.696;23.494;2023-05-07T07:00:58;1.60;;;1.50;;
10939;SDS011;5522;42.696;23.494;2023-05-07T07:03:24;1.75;;;1.30;;
10939;SDS011;5522;42.696;23.494;2023-05-07T07:05:51;1.80;;;1.35;;
10939;SDS011;5522;42.696;23.494;2023-05-07T07:08:20;4.85;;;1.77;;
10939;SDS011;5522;42.696;23.494;2023-05-07T07:10:47;2.42;;;1.58;;
10939;SDS011;5522;42.696;23.494;2023-05-07T07:13:14;1.75;;;1.20;;
10939;SDS011;5522;42.696;23.494;2023-05-07T07:15:41;1.80;;;1.80;;
10939;SDS011;5522;42.696;23.494;2023-05-07T07:18:08;3.70;;;1.70;;
10939;SDS011;5522;42.696;23.494;2023-05-07T07:20:35;2.63;;;1.75;;
10939;SDS011;5522;42.696;23.494;2023-05-07T07:23:02;2.03;;;1.88;;
10939;SDS011;5522;42.696;23.494;2023-05-07T07:25:30;2.15;;;1.88;;
10939;SDS011;5522;42.696;23.494;2023-05-07T07:27:57;4.90;;;2.45;;
10939;SDS011;5522;42.696;23.494;2023-05-07T07:30:24;1.92;;;1.83;;
10939;SDS011;5522;42.696;23.494;2023-05-07T07:32:52;7.85;;;1.98;;
10939;SDS011;5522;42.696;23.494;2023-05-07T07:35:18;2.10;;;1.90;;
10939;SDS011;5522;42.696;23.494;2023-05-07T07:37:45;3.38;;;2.42;;
10939;SDS011;5522;42.696;23.494;2023-05-07T07:40:14;2.85;;;2.13;;
10939;SDS011;5522;42.696;23.494;2023-05-07T07:42:43;2.38;;;1.70;;
10939;SDS011;5522;42.696;23.494;2023-05-07T07:45:10;1.80;;;1.70;;
10939;SDS011;5522;42.696;23.494;2023-05-07T07:47:37;4.47;;;1.70;;
10939;SDS011;5522;42.696;23.494;2023-05-07T07:50:04;1.83;;;1.73;;
10939;SDS011;5522;42.696;23.494;2023-05-07T07:52:32;4.22;;;1.90;;
10939;SDS011;5522;42.696;23.494;2023-05-07T07:54:59;2.45;;;2.25;;
10939;SDS011;5522;42.696;23.494;2023-05-07T07:57:25;2.00;;;1.90;;
10939;SDS011;5522;42.696;23.494;2023-05-07T07:59:54;2.20;;;2.10;;
10939;SDS011;5522;42.696;23.494;2023-05-07T08:02:20;4.32;;;2.30;;
10939;SDS011;5522;42.696;23.494;2023-05-07T08:04:47;3.38;;;2.30;;
10939;SDS011;5522;42.696;23.494;2023-05-07T08:07:14;3.42;;;2.45;;
10939;SDS011;5522;42.696;23.494;2023-05-07T08:09:43;1.80;;;1.80;;
10939;SDS011;5522;42.696;23.494;2023-05-07T08:12:10;2.08;;;1.98;;
10939;SDS011;5522;42.696;23.494;2023-05-07T08:14:37;1.55;;;1.40;;
10939;SDS011;5522;42.696;23.494;2023-05-07T08:17:05;2.40;;;1.95;;
10939;SDS011;5522;42.696;23.494;2023-05-07T08:19:32;1.95;;;1.67;;
10939;SDS011;5522;42.696;23.494;2023-05-07T08:21:59;2.17;;;1.00;;
10939;SDS011;5522;42.696;23.494;2023-05-07T08:24:26;1.85;;;1.60;;
10939;SDS011;5522;42.696;23.494;2023-05-07T08:26:53;1.52;;;1.40;;
10939;SDS011;5522;42.696;23.494;2023-05-07T08:29:20;5.43;;;1.30;;
10939;SDS011;5522;42.696;23.494;2023-05-07T08:31:46;5.90;;;0.73;;
10939;SDS011;5522;42.696;23.494;2023-05-07T08:34:14;2.22;;;0.77;;
10939;SDS011;5522;42.696;23.494;2023-05-07T08:36:41;0.93;;;0.50;;
10939;SDS011;5522;42.696;23.494;2023-05-07T08:39:08;1.90;;;0.60;;
10939;SDS011;5522;42.696;23.494;2023-05-07T08:41:35;2.35;;;0.73;;
10939;SDS011;5522;42.696;23.494;2023-05-07T08:44:02;3.05;;;0.50;;
10939;SDS011;5522;42.696;23.494;2023-05-07T08:46:32;4.22;;;0.70;;
10939;SDS011;5522;42.696;23.494;2023-05-07T08:49:00;2.42;;;0.60;;
10939;SDS011;5522;42.696;23.494;2023-05-07T08:51:28;3.80;;;0.70;;
10939;SDS011;5522;42.696;23.494;2023-05-07T08:53:56;2.67;;;0.60;;
10939;SDS011;5522;42.696;23.494;2023-05-07T08:56:24;4.68;;;0.77;;
10939;SDS011;5522;42.696;23.494;2023-05-07T08:58:51;1.23;;;0.50;;
10939;SDS011;5522;42.696;23.494;2023-05-07T09:01:21;5.07;;;0.50;;
10939;SDS011;5522;42.696;23.494;2023-05-07T09:03:49;1.15;;;0.50;;
10939;SDS011;5522;42.696;23.494;2023-05-07T09:06:16;1.30;;;0.50;;
10939;SDS011;5522;42.696;23.494;2023-05-07T09:08:45;2.15;;;0.40;;
10939;SDS011;5522;42.696;23.494;2023-05-07T09:11:17;1.85;;;0.40;;
10939;SDS011;5522;42.696;23.494;2023-05-07T09:13:47;2.92;;;0.50;;
10939;SDS011;5522;42.696;23.494;2023-05-07T09:16:14;1.05;;;0.40;;
10939;SDS011;5522;42.696;23.494;2023-05-07T09:18:41;2.15;;;0.40;;
10939;SDS011;5522;42.696;23.494;2023-05-07T09:21:09;2.95;;;0.50;;
10939;SDS011;5522;42.696;23.494;2023-05-07T09:23:37;5.53;;;0.50;;
10939;SDS011;5522;42.696;23.494;2023-05-07T09:26:06;1.30;;;0.40;;
10939;SDS011;5522;42.696;23.494;2023-05-07T09:28:37;1.17;;;0.50;;
10939;SDS011;5522;42.696;23.494;2023-05-07T09:31:05;4.20;;;0.30;;
10939;SDS011;5522;42.696;23.494;2023-05-07T09:33:32;0.50;;;0.40;;
10939;SDS011;5522;42.696;23.494;2023-05-07T09:36:01;0.45;;;0.30;;
10939;SDS011;5522;42.696;23.494;2023-05-07T09:38:28;0.40;;;0.40;;
10939;SDS011;5522;42.696;23.494;2023-05-07T09:41:02;2.75;;;0.30;;
10939;SDS011;5522;42.696;23.494;2023-05-07T09:43:32;0.40;;;0.40;;
10939;SDS011;5522;42.696;23.494;2023-05-07T09:46:02;3.15;;;0.30;;
10939;SDS011;5522;42.696;23.494;2023-05-07T09:48:29;1.40;;;0.35;;
10939;SDS011;5522;42.696;23.494;2023-05-07T09:50:58;1.23;;;0.30;;
10939;SDS011;5522;42.696;23.494;2023-05-07T09:53:29;0.30;;;0.30;;
10939;SDS011;5522;42.696;23.494;2023-05-07T09:55:57;1.75;;;0.30;;
10939;SDS011;5522;42.696;23.494;2023-05-07T09:58:25;0.82;;;0.30;;
10939;SDS011;5522;42.696;23.494;2023-05-07T10:00:53;1.27;;;0.50;;
10939;SDS011;5522;42.696;23.494;2023-05-07T10:03:22;0.40;;;0.40;;
10939;SDS011;5522;42.696;23.494;2023-05-07T10:05:53;0.68;;;0.30;;
10939;SDS011;5522;42.696;23.494;2023-05-07T10:08:21;2.05;;;0.40;;
10939;SDS011;5522;42.696;23.494;2023-05-07T10:10:48;0.30;;;0.30;;
10939;SDS011;5522;42.696;23.494;2023-05-07T10:13:16;0.68;;;0.40;;
10939;SDS011;5522;42.696;23.494;2023-05-07T10:15:45;1.48;;;0.40;;
10939;SDS011;5522;42.696;23.494;2023-05-07T10:18:14;0.50;;;0.50;;
10939;SDS011;5522;42.696;23.494;2023-05-07T10:20:42;1.02;;;0.60;;
10939;SDS011;5522;42.696;23.494;2023-05-07T10:23:13;1.27;;;0.50;;
10939;SDS011;5522;42.696;23.494;2023-05-07T10:25:45;0.47;;;0.43;;
10939;SDS011;5522;42.696;23.494;2023-05-07T10:28:13;0.40;;;0.40;;
10939;SDS011;5522;42.696;23.494;2023-05-07T10:30:45;1.73;;;0.60;;
10939;SDS011;5522;42.696;23.494;2023-05-07T10:33:23;1.75;;;0.47;;
10939;SDS011;5522;42.696;23.494;2023-05-07T10:35:55;1.00;;;0.40;;
10939;SDS011;5522;42.696;23.494;2023-05-07T10:38:26;1.55;;;0.32;;
10939;SDS011;5522;42.696;23.494;2023-05-07T10:40:54;2.60;;;0.90;;
10939;SDS011;5522;42.696;23.494;2023-05-07T10:43:21;2.10;;;1.95;;
10939;SDS011;5522;42.696;23.494;2023-05-07T10:46:09;3.05;;;1.40;;
10939;SDS011;5522;42.696;23.494;2023-05-07T10:51:38;1.15;;;0.70;;
10939;SDS011;5522;42.696;23.494;2023-05-07T10:54:18;1.38;;;1.02;;
10939;SDS011;5522;42.696;23.494;2023-05-07T10:56:45;0.60;;;0.60;;
10939;SDS011;5522;42.696;23.494;2023-05-07T10:59:33;1.02;;;0.77;;
10939;SDS011;5522;42.696;23.494;2023-05-07T11:02:06;1.60;;;0.60;;
10939;SDS011;5522;42.696;23.494;2023-05-07T11:04:36;0.60;;;0.60;;
10939;SDS011;5522;42.696;23.494;2023-05-07T11:10:02;2.17;;;0.40;;
10939;SDS011;5522;42.696;23.494;2023-05-07T11:12:46;1.25;;;1.15;;
10939;SDS011;5522;42.696;23.494;2023-05-07T11:15:36;3.80;;;0.60;;
10939;SDS011;5522;42.696;23.494;2023-05-07T11:18:04;2.28;;;0.60;;
10939;SDS011;5522;42.696;23.494;2023-05-07T11:20:49;1.58;;;0.60;;
10939;SDS011;5522;42.696;23.494;2023-05-07T11:26:42;2.17;;;0.52;;
10939;SDS011;5522;42.696;23.494;2023-05-07T11:29:13;0.50;;;0.50;;
10939;SDS011;5522;42.696;23.494;2023-05-07T11:31:42;2.30;;;0.60;;
10939;SDS011;5522;42.696;23.494;2023-05-07T11:34:08;2.88;;;0.50;;
10939;SDS011;5522;42.696;23.494;2023-05-07T11:36:41;0.40;;;0.40;;
10939;SDS011;5522;42.696;23.494;2023-05-07T11:39:23;0.73;;;0.73;;
10939;SDS011;5522;42.696;23.494;2023-05-07T11:41:51;0.57;;;0.50;;
10939;SDS011;5522;42.696;23.494;2023-05-07T11:44:17;1.38;;;0.60;;
10939;SDS011;5522;42.696;23.494;2023-05-07T11:46:44;0.50;;;0.50;;
10939;SDS011;5522;42.696;23.494;2023-05-07T11:49:11;0.45;;;0.45;;
10939;SDS011;5522;42.696;23.494;2023-05-07T11:51:40;0.60;;;0.60;;
10939;SDS011;5522;42.696;23.494;2023-05-07T11:54:07;2.15;;;0.63;;
10939;SDS011;5522;42.696;23.494;2023-05-07T11:56:36;2.03;;;0.60;;
10939;SDS011;5522;42.696;23.494;2023-05-07T11:59:03;0.50;;;0.50;;
10939;SDS011;5522;42.696;23.494;2023-05-07T12:01:30;2.15;;;0.50;;
10939;SDS011;5522;42.696;23.494;2023-05-07T12:03:57;0.40;;;0.40;;
10939;SDS011;5522;42.696;23.494;2023-05-07T12:06:24;0.40;;;0.40;;
10939;SDS011;5522;42.696;23.494;2023-05-07T12:08:52;0.50;;;0.40;;
10939;SDS011;5522;42.696;23.494;2023-05-07T12:11:22;0.40;;;0.40;;
10939;SDS011;5522;42.696;23.494;2023-05-07T12:13:50;2.53;;;0.40;;
10939;SDS011;5522;42.696;23.494;2023-05-07T12:16:17;2.60;;;0.40;;
10939;SDS011;5522;42.696;23.494;2023-05-07T12:18:45;3.05;;;0.50;;
10939;SDS011;5522;42.696;23.494;2023-05-07T12:21:13;2.30;;;0.55;;
10939;SDS011;5522;42.696;23.494;2023-05-07T12:23:41;0.40;;;0.40;;
10939;SDS011;5522;42.696;23.494;2023-05-07T12:26:10;0.85;;;0.50;;
10939;SDS011;5522;42.696;23.494;2023-05-07T12:28:38;1.23;;;0.40;;
10939;SDS011;5522;42.696;23.494;2023-05-07T12:31:05;1.95;;;0.40;;
10939;SDS011;5522;42.696;23.494;2023-05-07T12:33:33;2.28;;;0.70;;
10939;SDS011;5522;42.696;23.494;2023-05-07T12:36:02;2.50;;;0.40;;
10939;SDS011;5522;42.696;23.494;2023-05-07T12:38:35;0.55;;;0.40;;
10939;SDS011;5522;42.696;23.494;2023-05-07T12:41:04;2.35;;;0.40;;
10939;SDS011;5522;42.696;23.494;2023-05-07T12:43:33;1.50;;;0.40;;
10939;SDS011;5522;42.696;23.494;2023-05-07T12:46:01;1.75;;;0.47;;
10939;SDS011;5522;42.696;23.494;2023-05-07T12:48:33;0.85;;;0.40;;
10939;SDS011;5522;42.696;23.494;2023-05-07T12:51:00;1.77;;;0.40;;
10939;SDS011;5522;42.696;23.494;2023-05-07T12:53:28;2.38;;;0.40;;
10939;SDS011;5522;42.696;23.494;2023-05-07T12:55:57;1.98;;;0.45;;
10939;SDS011;5522;42.696;23.494;2023-05-07T12:58:25;0.40;;;0.40;;
10939;SDS011;5522;42.696;23.494;2023-05-07T13:00:54;0.40;;;0.40;;
10939;SDS011;5522;42.696;23.494;2023-05-07T13:03:26;0.77;;;0.40;;
10939;SDS011;5522;42.696;23.494;2023-05-07T13:05:54;0.50;;;0.50;;
10939;SDS011;5522;42.696;23.494;2023-05-07T13:08:26;0.45;;;0.45;;
10939;SDS011;5522;42.696;23.494;2023-05-07T13:10:54;1.15;;;0.40;;
10939;SDS011;5522;42.696;23.494;2023-05-07T13:13:21;0.40;;;0.40;;
10939;SDS011;5522;42.696;23.494;2023-05-07T13:15:47;0.95;;;0.57;;
10939;SDS011;5522;42.696;23.494;2023-05-07T13:18:16;1.10;;;0.40;;
10939;SDS011;5522;42.696;23.494;2023-05-07T13:20:43;0.57;;;0.50;;
10939;SDS011;5522;42.696;23.494;2023-05-07T13:23:10;0.95;;;0.40;;
10939;SDS011;5522;42.696;23.494;2023-05-07T13:25:37;1.15;;;0.40;;
10939;SDS011;5522;42.696;23.494;2023-05-07T13:28:03;1.20;;;0.40;;
10939;SDS011;5522;42.696;23.494;2023-05-07T13:30:30;2.10;;;0.40;;
10939;SDS011;5522;42.696;23.494;2023-05-07T13:32:57;0.35;;;0.30;;
10939;SDS011;5522;42.696;23.494;2023-05-07T13:35:26;3.42;;;0.50;;
10939;SDS011;5522;42.696;23.494;2023-05-07T13:37:52;1.23;;;0.35;;
10939;SDS011;5522;42.696;23.494;2023-05-07T13:40:20;1.08;;;0.40;;
10939;SDS011;5522;42.696;23.494;2023-05-07T13:42:47;1.45;;;0.40;;
10939;SDS011;5522;42.696;23.494;2023-05-07T13:45:15;2.85;;;0.40;;
10939;SDS011;5522;42.696;23.494;2023-05-07T13:47:42;1.58;;;0.30;;
10939;SDS011;5522;42.696;23.494;2023-05-07T13:50:09;1.80;;;0.40;;
10939;SDS011;5522;42.696;23.494;2023-05-07T13:52:40;0.32;;;0.32;;
10939;SDS011;5522;42.696;23.494;2023-05-07T13:55:08;1.23;;;0.40;;
10939;SDS011;5522;42.696;23.494;2023-05-07T13:57:35;0.45;;;0.40;;
10939;SDS011;5522;42.696;23.494;2023-05-07T14:00:02;0.63;;;0.30;;
10939;SDS011;5522;42.696;23.494;2023-05-07T14:02:30;0.35;;;0.35;;
10939;SDS011;5522;42.696;23.494;2023-05-07T14:04:57;1.73;;;0.40;;
10939;SDS011;5522;42.696;23.494;2023-05-07T14:07:23;0.75;;;0.30;;
10939;SDS011;5522;42.696;23.494;2023-05-07T14:09:52;1.10;;;0.30;;
10939;SDS011;5522;42.696;23.494;2023-05-07T14:12:18;0.65;;;0.40;;
10939;SDS011;5522;42.696;23.494;2023-05-07T14:14:45;0.30;;;0.30;;
10939;SDS011;5522;42.696;23.494;2023-05-07T14:17:14;0.30;;;0.30;;
10939;SDS011;5522;42.696;23.494;2023-05-07T14:19:41;0.50;;;0.50;;
10939;SDS011;5522;42.696;23.494;2023-05-07T14:22:08;1.85;;;0.30;;
10939;SDS011;5522;42.696;23.494;2023-05-07T14:24:35;0.40;;;0.30;;
10939;SDS011;5522;42.696;23.494;2023-05-07T14:27:05;2.25;;;0.30;;
10939;SDS011;5522;42.696;23.494;2023-05-07T14:29:32;0.98;;;0.30;;
10939;SDS011;5522;42.696;23.494;2023-05-07T14:32:00;0.35;;;0.30;;
10939;SDS011;5522;42.696;23.494;2023-05-07T14:34:27;0.30;;;0.30;;
10939;SDS011;5522;42.696;23.494;2023-05-07T14:36:54;0.30;;;0.30;;
10939;SDS011;5522;42.696;23.494;2023-05-07T14:39:21;1.10;;;0.28;;
10939;SDS011;5522;42.696;23.494;2023-05-07T14:41:48;0.30;;;0.30;;
10939;SDS011;5522;42.696;23.494;2023-05-07T14:44:16;1.35;;;0.30;;
10939;SDS011;5522;42.696;23.494;2023-05-07T14:46:43;0.32;;;0.32;;
10939;SDS011;5522;42.696;23.494;2023-05-07T14:49:10;0.50;;;0.40;;
10939;SDS011;5522;42.696;23.494;2023-05-07T14:51:42;0.45;;;0.30;;
10939;SDS011;5522;42.696;23.494;2023-05-07T14:54:10;0.30;;;0.30;;
10939;SDS011;5522;42.696;23.494;2023-05-07T14:56:36;0.30;;;0.30;;
10939;SDS011;5522;42.696;23.494;2023-05-07T14:59:04;0.38;;;0.30;;
10939;SDS011;5522;42.696;23.494;2023-05-07T15:01:32;2.00;;;0.30;;
10939;SDS011;5522;42.696;23.494;2023-05-07T15:04:00;1.23;;;0.30;;